Time;durP1;ratioP1;P1;durP2;ratioP2;P2;SDS_P1;SDS_P2;PMS_P1;PMS_P2;Temp;Humidity;BMP_temperature;BMP_pressure;BME280_temperature;BME280_humidity;BME280_pressure;Samples;Min_cycle;Max_cycle;Signal;HPM_P1;HPM_P2
2023/06/08 00:01:40;;;;;;;;;;;;;;;17.13;60.85;101817.03;4939328;28;20013;-67
2023/06/08 00:04:07;;;;;;;;;;;;;;;17.11;60.72;101823.63;4942812;28;19929;-66
2023/06/08 00:06:33;;;;;;;;;;;;;;;17.09;60.76;101817.63;4941749;28;19914;-67
2023/06/08 00:08:59;;;;;;;;;;;;;;;17.06;61.31;101813.47;4936446;28;20005;-68
2023/06/08 00:11:25;;;;;;;;;;;;;;;17.04;61.01;101818.16;4942041;28;19934;-68
2023/06/08 00:13:50;;;;;;;;;;;;;;;17.02;61.28;101809.47;4937279;28;19982;-67
2023/06/08 00:16:15;;;;;;;;;;;;;;;16.99;61.60;101810.69;4942591;28;20285;-67
2023/06/08 00:18:41;;;;;;;;;;;;;;;16.97;61.50;101804.69;4940767;28;19968;-67
2023/06/08 00:21:06;;;;;;;;;;;;;;;16.96;61.68;101807.56;4938426;28;19944;-67
2023/06/08 00:23:31;;;;;;;;;;;;;;;16.94;61.79;101804.22;4941662;28;19919;-67
2023/06/08 00:25:57;;;;;;;;;;;;;;;16.90;62.14;101803.78;4938626;28;20589;-67
2023/06/08 00:28:23;;;;;;;;;;;;;;;16.87;62.25;101814.88;4944700;28;19918;-67
2023/06/08 00:30:48;;;;;;;;;;;;;;;16.85;61.93;101808.06;4939548;28;19926;-68
2023/06/08 00:33:13;;;;;;;;;;;;;;;16.82;62.32;101808.44;4931536;28;19919;-67
2023/06/08 00:35:39;;;;;;;;;;;;;;;16.79;62.55;101801.59;4937866;28;19926;-68
2023/06/08 00:38:04;;;;;;;;;;;;;;;16.77;62.54;101806.31;4941779;28;19922;-68
2023/06/08 00:40:29;;;;;;;;;;;;;;;16.76;62.55;101811.84;4943732;28;19919;-68
2023/06/08 00:42:55;;;;;;;;;;;;;;;16.73;62.55;101797.78;4935805;28;20291;-67
2023/06/08 00:45:20;;;;;;;;;;;;;;;16.70;62.75;101791.97;4946378;28;19922;-67
2023/06/08 00:47:46;;;;;;;;;;;;;;;16.67;62.56;101797.69;4936119;28;19962;-67
2023/06/08 00:50:11;;;;;;;;;;;;;;;16.65;62.82;101789.81;4941097;28;19918;-67
2023/06/08 00:52:39;;;;;;;;;;;;;;;16.61;62.77;101791.22;4947450;28;19922;-67
2023/06/08 00:55:04;;;;;;;;;;;;;;;16.60;63.13;101791.41;4940919;28;20009;-66
2023/06/08 00:57:30;;;;;;;;;;;;;;;16.58;63.10;101790.75;4937152;28;19915;-68
2023/06/08 00:59:59;;;;;;;;;;;;;;;16.56;63.17;101788.25;4942982;28;19961;-68
2023/06/08 01:02:24;;;;;;;;;;;;;;;16.54;63.19;101793.00;4946637;28;20541;-68
2023/06/08 01:04:50;;;;;;;;;;;;;;;16.52;63.24;101794.19;4940433;28;19919;-67
2023/06/08 01:07:16;;;;;;;;;;;;;;;16.50;63.26;101788.19;4950457;28;20017;-68
2023/06/08 01:10:00;;;;;;;;;;;;;;;16.50;63.22;101790.88;4936197;28;20383;-68
2023/06/08 01:12:32;;;;;;;;;;;;;;;16.47;63.52;101785.84;4947349;28;19926;-67
2023/06/08 01:15:08;;;;;;;;;;;;;;;16.45;63.47;101782.53;4944927;28;20005;-68
2023/06/08 01:17:40;;;;;;;;;;;;;;;16.43;63.51;101780.03;4938785;28;19919;-68
2023/06/08 01:20:15;;;;;;;;;;;;;;;16.41;63.51;101782.91;4950440;28;19930;-67
2023/06/08 01:22:47;;;;;;;;;;;;;;;16.39;63.55;101781.44;4938865;28;19927;-68
2023/06/08 01:25:14;;;;;;;;;;;;;;;16.35;63.31;101780.97;4951402;28;19925;-68
2023/06/08 01:27:39;;;;;;;;;;;;;;;16.33;63.73;101776.81;4942460;28;20412;-67
2023/06/08 01:30:05;;;;;;;;;;;;;;;16.31;63.54;101777.00;4939466;28;20001;-68
2023/06/08 01:32:30;;;;;;;;;;;;;;;16.28;63.77;101774.69;4946470;28;19997;-67
2023/06/08 01:34:55;;;;;;;;;;;;;;;16.26;63.85;101779.41;4947801;28;20420;-67
2023/06/08 01:37:29;;;;;;;;;;;;;;;16.24;64.01;101781.44;4942563;28;19926;-68
2023/06/08 01:39:56;;;;;;;;;;;;;;;16.20;64.03;101773.97;4937052;28;19923;-67
2023/06/08 01:42:23;;;;;;;;;;;;;;;16.15;64.14;101771.81;4942634;28;19919;-67
2023/06/08 01:44:57;;;;;;;;;;;;;;;16.13;63.82;101775.69;4943297;28;19918;-67
2023/06/08 01:47:25;;;;;;;;;;;;;;;16.10;64.25;101776.88;4945197;28;19918;-68
2023/06/08 01:49:52;;;;;;;;;;;;;;;16.07;64.30;101774.59;4943118;28;19926;-68
2023/06/08 01:52:18;;;;;;;;;;;;;;;16.05;64.25;101773.94;4943763;28;19915;-70
2023/06/08 01:54:43;;;;;;;;;;;;;;;16.01;64.46;101773.47;4943994;28;19922;-67
2023/06/08 01:57:08;;;;;;;;;;;;;;;15.97;64.35;101766.00;4936325;28;19954;-66
2023/06/08 01:59:33;;;;;;;;;;;;;;;15.92;64.67;101765.72;4945751;28;19952;-67
2023/06/08 02:01:58;;;;;;;;;;;;;;;15.87;64.49;101766.22;4945965;28;20456;-67
2023/06/08 02:04:24;;;;;;;;;;;;;;;15.84;64.85;101752.38;4943291;28;19923;-67
2023/06/08 02:06:49;;;;;;;;;;;;;;;15.80;64.81;101757.28;4950204;28;19918;-67
2023/06/08 02:09:14;;;;;;;;;;;;;;;15.75;64.88;101759.66;4936479;28;20308;-67
2023/06/08 02:11:39;;;;;;;;;;;;;;;15.71;64.67;101756.53;4941928;28;19919;-67
2023/06/08 02:14:05;;;;;;;;;;;;;;;15.67;64.74;101752.56;4948550;28;19973;-67
2023/06/08 02:16:33;;;;;;;;;;;;;;;15.65;64.71;101761.78;4942564;28;20304;-67
2023/06/08 02:18:59;;;;;;;;;;;;;;;15.59;65.39;101763.31;4938821;28;19929;-67
2023/06/08 02:21:24;;;;;;;;;;;;;;;15.54;65.15;101760.31;4923548;28;19918;-67
2023/06/08 02:23:50;;;;;;;;;;;;;;;15.51;65.44;101755.31;4940383;28;20021;-67
2023/06/08 02:26:16;;;;;;;;;;;;;;;15.48;65.69;101764.56;4947739;28;19956;-67
2023/06/08 02:28:41;;;;;;;;;;;;;;;15.44;65.41;101759.75;4937898;28;20530;-67
2023/06/08 02:31:06;;;;;;;;;;;;;;;15.38;65.89;101765.81;4948119;28;19918;-67
2023/06/08 02:33:32;;;;;;;;;;;;;;;15.34;65.74;101762.69;4936869;28;19918;-67
2023/06/08 02:35:57;;;;;;;;;;;;;;;15.33;65.71;101757.50;4939532;28;19998;-68
2023/06/08 02:38:22;;;;;;;;;;;;;;;15.30;66.16;101763.19;4936221;28;20360;-67
2023/06/08 02:40:47;;;;;;;;;;;;;;;15.27;66.09;101760.88;4939040;28;19922;-67
2023/06/08 02:43:12;;;;;;;;;;;;;;;15.23;66.14;101759.56;4950166;28;19924;-67
2023/06/08 02:45:39;;;;;;;;;;;;;;;15.18;66.36;101763.63;4943732;28;19918;-67
2023/06/08 02:48:04;;;;;;;;;;;;;;;15.16;66.51;101757.63;4946551;28;19969;-66
2023/06/08 02:50:30;;;;;;;;;;;;;;;15.12;66.24;101756.31;4940054;28;19922;-68
2023/06/08 02:52:55;;;;;;;;;;;;;;;15.11;66.27;101762.66;4944107;28;19942;-67
2023/06/08 02:55:20;;;;;;;;;;;;;;;15.08;66.36;101763.03;4946189;28;19915;-67
2023/06/08 02:57:49;;;;;;;;;;;;;;;15.06;66.79;101764.22;4946937;28;20009;-67
2023/06/08 03:00:14;;;;;;;;;;;;;;;15.02;66.49;101770.91;4939355;28;20058;-67
2023/06/08 03:02:39;;;;;;;;;;;;;;;14.99;66.64;101761.41;4932190;28;19915;-67
2023/06/08 03:05:05;;;;;;;;;;;;;;;14.97;66.55;101765.25;4945682;28;19966;-67
2023/06/08 03:07:31;;;;;;;;;;;;;;;14.94;66.78;101771.78;4939821;28;20001;-67
2023/06/08 03:09:56;;;;;;;;;;;;;;;14.93;67.10;101766.63;4939169;28;19962;-67
2023/06/08 03:12:21;;;;;;;;;;;;;;;14.89;67.14;101763.47;4932477;28;19988;-67
2023/06/08 03:14:48;;;;;;;;;;;;;;;14.88;67.38;101757.28;4943504;28;19968;-67
2023/06/08 03:17:16;;;;;;;;;;;;;;;14.86;66.97;101758.47;4941992;28;19918;-65
2023/06/08 03:19:41;;;;;;;;;;;;;;;14.85;67.50;101759.50;4944670;28;19972;-67
2023/06/08 03:22:07;;;;;;;;;;;;;;;14.81;67.30;101759.00;4944138;28;20426;-66
2023/06/08 03:24:32;;;;;;;;;;;;;;;14.79;67.58;101746.84;4942745;28;19990;-67
2023/06/08 03:27:00;;;;;;;;;;;;;;;14.78;67.30;101746.00;4948474;28;19914;-67
2023/06/08 03:29:26;;;;;;;;;;;;;;;14.78;67.75;101747.84;4937978;28;20278;-68
2023/06/08 03:31:51;;;;;;;;;;;;;;;14.76;67.81;101747.19;4940606;28;19915;-67
2023/06/08 03:34:17;;;;;;;;;;;;;;;14.74;67.45;101750.00;4938333;28;20377;-67
2023/06/08 03:36:43;;;;;;;;;;;;;;;14.73;67.54;101752.84;4932760;28;19958;-67
2023/06/08 03:39:08;;;;;;;;;;;;;;;14.71;67.56;101749.53;4936744;28;19929;-67
2023/06/08 03:41:34;;;;;;;;;;;;;;;14.70;67.84;101758.56;4938791;28;19915;-67
2023/06/08 03:43:59;;;;;;;;;;;;;;;14.68;67.69;101750.72;4941923;28;19919;-67
2023/06/08 03:46:24;;;;;;;;;;;;;;;14.67;67.76;101757.06;4939219;28;20474;-67
2023/06/08 03:48:50;;;;;;;;;;;;;;;14.66;67.87;101754.56;4934312;28;19920;-67
2023/06/08 03:51:15;;;;;;;;;;;;;;;14.65;68.10;101756.41;4934373;28;19919;-67
2023/06/08 03:53:40;;;;;;;;;;;;;;;14.65;67.88;101751.06;4943721;28;19914;-67
2023/06/08 03:56:06;;;;;;;;;;;;;;;14.62;68.26;101756.75;4938512;28;19918;-65
2023/06/08 03:58:32;;;;;;;;;;;;;;;14.61;68.32;101756.94;4946259;28;20422;-67
2023/06/08 04:00:58;;;;;;;;;;;;;;;14.58;68.26;101750.09;4941574;28;19925;-66
2023/06/08 04:03:25;;;;;;;;;;;;;;;14.57;68.68;101751.94;4931599;28;19919;-66
2023/06/08 04:05:51;;;;;;;;;;;;;;;14.57;68.40;101759.13;4936086;28;20253;-67
2023/06/08 04:08:17;;;;;;;;;;;;;;;14.55;68.44;101753.97;4939854;28;20391;-67
2023/06/08 04:10:42;;;;;;;;;;;;;;;14.53;68.34;101747.13;4933411;28;19921;-67
2023/06/08 04:13:07;;;;;;;;;;;;;;;14.52;68.85;101756.16;4933904;28;20292;-66
2023/06/08 04:15:33;;;;;;;;;;;;;;;14.50;68.47;101753.66;4943506;28;19951;-67
2023/06/08 04:17:58;;;;;;;;;;;;;;;14.49;68.58;101759.19;4945080;28;20376;-67
2023/06/08 04:20:23;;;;;;;;;;;;;;;14.46;68.61;101760.34;4937157;28;19994;-68
2023/06/08 04:22:48;;;;;;;;;;;;;;;14.45;68.75;101756.00;4938719;28;20472;-66
2023/06/08 04:25:13;;;;;;;;;;;;;;;14.45;68.96;101756.00;4936981;28;20572;-67
2023/06/08 04:27:39;;;;;;;;;;;;;;;14.41;68.74;101749.31;4933541;28;19926;-67
2023/06/08 04:30:04;;;;;;;;;;;;;;;14.43;68.97;101759.84;4930561;28;20352;-66
2023/06/08 04:32:29;;;;;;;;;;;;;;;14.44;68.98;101756.16;4941392;28;20020;-67
2023/06/08 04:34:54;;;;;;;;;;;;;;;14.43;69.27;101755.34;4942648;28;19923;-66
2023/06/08 04:37:20;;;;;;;;;;;;;;;14.43;69.04;101755.34;4939430;28;19926;-67
2023/06/08 04:39:48;;;;;;;;;;;;;;;14.45;68.98;101749.81;4939450;28;19923;-67
2023/06/08 04:42:14;;;;;;;;;;;;;;;14.45;69.17;101747.97;4940858;28;19942;-67
2023/06/08 04:44:39;;;;;;;;;;;;;;;14.49;69.01;101751.16;4949083;28;19915;-67
2023/06/08 04:47:07;;;;;;;;;;;;;;;14.49;69.46;101749.31;4942730;28;20261;-67
2023/06/08 04:49:33;;;;;;;;;;;;;;;14.50;69.02;101745.63;4942045;28;20503;-67
2023/06/08 04:51:58;;;;;;;;;;;;;;;14.51;69.16;101746.47;4943632;28;20025;-67
2023/06/08 04:54:25;;;;;;;;;;;;;;;14.48;69.33;101746.81;4942072;28;19932;-67
2023/06/08 04:56:53;;;;;;;;;;;;;;;14.45;68.83;101750.66;4944167;28;20549;-67
2023/06/08 04:59:18;;;;;;;;;;;;;;;14.44;68.79;101743.63;4944204;28;19972;-67
2023/06/08 05:01:44;;;;;;;;;;;;;;;14.43;68.98;101750.00;4943440;28;20031;-67
2023/06/08 05:04:09;;;;;;;;;;;;;;;14.42;69.22;101742.13;4939838;28;19925;-67
2023/06/08 05:06:35;;;;;;;;;;;;;;;14.43;68.84;101749.16;4940654;28;19949;-67
2023/06/08 05:09:00;;;;;;;;;;;;;;;14.45;68.99;101750.66;4939707;28;20009;-66
2023/06/08 05:11:26;;;;;;;;;;;;;;;14.47;68.81;101743.31;4942812;28;20033;-67
2023/06/08 05:13:51;;;;;;;;;;;;;;;14.50;68.91;101742.97;4941902;28;19915;-66
2023/06/08 05:16:16;;;;;;;;;;;;;;;14.52;69.17;101748.97;4943339;28;20456;-67
2023/06/08 05:18:41;;;;;;;;;;;;;;;14.55;69.05;101745.94;4946294;28;19954;-67
2023/06/08 05:21:06;;;;;;;;;;;;;;;14.59;69.15;101740.25;4944627;28;19915;-67
2023/06/08 05:23:31;;;;;;;;;;;;;;;14.64;69.47;101748.56;4938922;28;19926;-67
2023/06/08 05:25:57;;;;;;;;;;;;;;;14.65;69.31;101744.88;4934186;28;19914;-66
2023/06/08 05:28:22;;;;;;;;;;;;;;;14.66;69.41;101747.38;4947664;29;19922;-67
2023/06/08 05:30:47;;;;;;;;;;;;;;;14.68;69.27;101744.53;4939352;28;19918;-66
2023/06/08 05:33:12;;;;;;;;;;;;;;;14.69;69.24;101739.00;4944744;28;19914;-67
2023/06/08 05:35:37;;;;;;;;;;;;;;;14.69;69.33;101733.66;4936934;28;20463;-67
2023/06/08 05:38:03;;;;;;;;;;;;;;;14.69;69.11;101740.84;4936274;28;19925;-67
2023/06/08 05:40:28;;;;;;;;;;;;;;;14.69;69.14;101740.84;4935953;28;19919;-67
2023/06/08 05:42:53;;;;;;;;;;;;;;;14.72;69.37;101740.50;4944670;28;19925;-67
2023/06/08 05:45:18;;;;;;;;;;;;;;;14.77;69.29;101732.81;4949773;28;19926;-67
2023/06/08 05:47:44;;;;;;;;;;;;;;;14.81;69.59;101732.28;4942133;28;19962;-67
2023/06/08 05:50:09;;;;;;;;;;;;;;;14.86;69.47;101726.38;4940391;28;19925;-67
2023/06/08 05:52:34;;;;;;;;;;;;;;;14.91;69.24;101723.19;4943258;28;19938;-67
2023/06/08 05:55:00;;;;;;;;;;;;;;;14.96;69.27;101729.66;4947197;28;19922;-66
2023/06/08 05:57:25;;;;;;;;;;;;;;;15.00;69.06;101728.28;4940569;28;19923;-68
2023/06/08 05:59:50;;;;;;;;;;;;;;;15.04;69.03;101729.63;4942680;28;19926;-67
2023/06/08 06:02:16;;;;;;;;;;;;;;;15.09;69.14;101724.56;4944748;28;20014;-67
2023/06/08 06:04:41;;;;;;;;;;;;;;;15.11;68.83;101732.41;4944216;28;20380;-66
2023/06/08 06:07:07;;;;;;;;;;;;;;;15.12;68.71;101723.38;4945827;28;19915;-66
2023/06/08 06:09:32;;;;;;;;;;;;;;;15.12;68.44;101726.88;4934204;28;20403;-67
2023/06/08 06:11:57;;;;;;;;;;;;;;;15.16;68.43;101722.84;4943636;28;20355;-67
2023/06/08 06:14:22;;;;;;;;;;;;;;;15.19;68.56;101722.47;4941724;28;19918;-68
2023/06/08 06:16:48;;;;;;;;;;;;;;;15.24;68.53;101724.59;4943193;28;20057;-67
2023/06/08 06:19:13;;;;;;;;;;;;;;;15.28;68.39;101730.44;4948970;28;20414;-67
2023/06/08 06:21:38;;;;;;;;;;;;;;;15.30;68.28;101725.72;4942289;28;19915;-67
2023/06/08 06:24:03;;;;;;;;;;;;;;;15.31;67.96;101732.75;4942953;28;20033;-67
2023/06/08 06:26:29;;;;;;;;;;;;;;;15.34;67.80;101730.56;4943580;28;19936;-67
2023/06/08 06:28:54;;;;;;;;;;;;;;;15.38;68.01;101726.50;4936610;28;20523;-67
2023/06/08 06:31:19;;;;;;;;;;;;;;;15.43;68.15;101734.81;4942257;28;19926;-67
2023/06/08 06:33:44;;;;;;;;;;;;;;;15.49;68.42;101735.94;4939093;28;19927;-67
2023/06/08 06:36:09;;;;;;;;;;;;;;;15.54;68.27;101735.41;4935090;28;19922;-67
2023/06/08 06:38:35;;;;;;;;;;;;;;;15.58;68.23;101742.91;4946499;28;19933;-67
2023/06/08 06:41:00;;;;;;;;;;;;;;;15.61;67.87;101736.34;4950345;28;19915;-67
2023/06/08 06:43:25;;;;;;;;;;;;;;;15.64;68.02;101738.69;4940236;28;20029;-67
2023/06/08 06:45:51;;;;;;;;;;;;;;;15.69;67.95;101734.47;4942779;28;19925;-67
2023/06/08 06:48:19;;;;;;;;;;;;;;;15.73;67.26;101735.75;4940571;28;20361;-67
2023/06/08 06:50:45;;;;;;;;;;;;;;;15.76;67.18;101735.38;4934180;28;19923;-67
2023/06/08 06:53:10;;;;;;;;;;;;;;;15.80;67.53;101736.69;4939439;28;19930;-66
2023/06/08 06:55:35;;;;;;;;;;;;;;;15.89;67.58;101734.75;4942452;28;20329;-67
2023/06/08 06:58:02;;;;;;;;;;;;;;;15.98;67.43;101743.53;4942555;28;19914;-66
2023/06/08 07:00:29;;;;;;;;;;;;;;;16.07;67.59;101742.44;4944004;28;19927;-65
2023/06/08 07:02:55;;;;;;;;;;;;;;;16.15;67.10;101747.69;4945197;29;19969;-67
2023/06/08 07:05:20;;;;;;;;;;;;;;;16.22;66.83;101750.47;4938425;28;20415;-67
2023/06/08 07:07:45;;;;;;;;;;;;;;;16.31;67.02;101754.72;4938947;28;19918;-67
2023/06/08 07:10:10;;;;;;;;;;;;;;;16.39;67.10;101743.88;4944165;28;19937;-68
2023/06/08 07:12:35;;;;;;;;;;;;;;;16.47;66.73;101740.28;4937910;28;20368;-67
2023/06/08 07:15:01;;;;;;;;;;;;;;;16.54;66.63;101743.88;4944172;28;20372;-66
2023/06/08 07:17:26;;;;;;;;;;;;;;;16.61;66.55;101744.78;4941848;28;19923;-67
2023/06/08 07:19:52;;;;;;;;;;;;;;;16.68;66.32;101751.09;4943397;28;19923;-67
2023/06/08 07:22:18;;;;;;;;;;;;;;;16.73;66.12;101751.34;4936337;28;19922;-67
2023/06/08 07:24:43;;;;;;;;;;;;;;;16.79;66.02;101747.94;4940367;28;19915;-65
2023/06/08 07:27:08;;;;;;;;;;;;;;;16.85;66.02;101747.16;4935921;28;19969;-68
2023/06/08 07:29:33;;;;;;;;;;;;;;;16.92;65.64;101749.91;4935979;28;20033;-67
2023/06/08 07:31:58;;;;;;;;;;;;;;;16.98;65.71;101752.66;4946234;28;19923;-68
2023/06/08 07:34:25;;;;;;;;;;;;;;;17.04;65.21;101754.59;4941504;28;20017;-67
2023/06/08 07:36:50;;;;;;;;;;;;;;;17.12;65.40;101747.44;4945315;28;19938;-67
2023/06/08 07:39:15;;;;;;;;;;;;;;;17.19;65.25;101748.34;4937747;28;19922;-67
2023/06/08 07:41:40;;;;;;;;;;;;;;;17.25;65.44;101753.78;4944966;28;19961;-68
2023/06/08 07:44:05;;;;;;;;;;;;;;;17.32;65.29;101749.28;4938676;28;19922;-67
2023/06/08 07:46:31;;;;;;;;;;;;;;;17.40;65.07;101752.88;4934548;28;19919;-67
2023/06/08 07:48:56;;;;;;;;;;;;;;;17.45;64.92;101748.59;4937895;28;20327;-68
2023/06/08 07:51:21;;;;;;;;;;;;;;;17.51;64.66;101747.81;4938628;28;19961;-67
2023/06/08 07:53:46;;;;;;;;;;;;;;;17.55;64.53;101741.03;4942228;28;19948;-68
2023/06/08 07:56:12;;;;;;;;;;;;;;;17.63;64.75;101740.88;4941647;28;20013;-67
2023/06/08 07:58:37;;;;;;;;;;;;;;;17.70;64.12;101740.97;4930947;28;19918;-68
2023/06/08 08:01:02;;;;;;;;;;;;;;;17.76;64.03;101728.59;4939968;28;19952;-67
2023/06/08 08:03:28;;;;;;;;;;;;;;;17.82;63.82;101735.88;4933190;28;19922;-67
2023/06/08 08:05:53;;;;;;;;;;;;;;;17.91;63.69;101732.00;4937312;28;19922;-68
2023/06/08 08:08:18;;;;;;;;;;;;;;;18.01;64.01;101734.34;4936452;28;19929;-67
2023/06/08 08:10:44;;;;;;;;;;;;;;;18.09;63.69;101736.88;4938133;28;20425;-67
2023/06/08 08:13:09;;;;;;;;;;;;;;;18.19;63.49;101734.66;4938195;28;19915;-68
2023/06/08 08:15:35;;;;;;;;;;;;;;;18.30;63.53;101736.78;4946489;28;20069;-67
2023/06/08 08:18:00;;;;;;;;;;;;;;;18.42;63.32;101732.50;4940607;28;19915;-67
2023/06/08 08:20:26;;;;;;;;;;;;;;;18.53;63.14;101736.47;4938855;28;20392;-67
2023/06/08 08:22:51;;;;;;;;;;;;;;;18.65;63.05;101737.59;4938748;28;19922;-67
2023/06/08 08:25:16;;;;;;;;;;;;;;;18.79;62.93;101743.81;4940616;28;19919;-66
2023/06/08 08:27:41;;;;;;;;;;;;;;;18.91;62.50;101736.00;4936291;28;19919;-67
2023/06/08 08:30:07;;;;;;;;;;;;;;;19.03;62.62;101735.19;4938314;28;20405;-66
2023/06/08 08:32:32;;;;;;;;;;;;;;;19.16;62.13;101731.69;4938933;28;20017;-67
2023/06/08 08:34:57;;;;;;;;;;;;;;;19.28;61.89;101730.03;4934107;28;19950;-68
2023/06/08 08:37:23;;;;;;;;;;;;;;;19.41;61.62;101726.53;4932547;28;20010;-67
2023/06/08 08:39:48;;;;;;;;;;;;;;;19.57;61.57;101722.63;4940879;28;19919;-67
2023/06/08 08:42:17;;;;;;;;;;;;;;;19.74;60.88;101723.84;4933668;28;19962;-68
2023/06/08 08:44:44;;;;;;;;;;;;;;;19.90;60.69;101722.56;4935316;28;19915;-67
2023/06/08 08:47:13;;;;;;;;;;;;;;;20.07;60.49;101727.31;4938191;28;19915;-67
2023/06/08 08:49:42;;;;;;;;;;;;;;;20.23;59.65;101722.47;4938713;28;20005;-67
2023/06/08 08:52:08;;;;;;;;;;;;;;;20.37;59.38;101724.09;4931728;28;19919;-66
2023/06/08 08:54:34;;;;;;;;;;;;;;;20.53;58.91;101718.28;4934365;28;19949;-67
2023/06/08 08:57:00;;;;;;;;;;;;;;;20.66;58.81;101720.06;4942092;28;20623;-66
2023/06/08 08:59:32;;;;;;;;;;;;;;;20.80;58.43;101712.69;4940339;28;19928;-67
2023/06/08 09:01:57;;;;;;;;;;;;;;;20.97;57.58;101713.84;4947038;28;19925;-67
2023/06/08 09:04:23;;;;;;;;;;;;;;;21.08;57.26;101715.84;4938477;28;19918;-67
2023/06/08 09:06:49;;;;;;;;;;;;;;;21.21;57.33;101710.34;4931406;28;19941;-66
2023/06/08 09:09:14;;;;;;;;;;;;;;;21.34;57.19;101704.88;4943358;28;19945;-67
2023/06/08 09:12:00;;;;;;;;;;;;;;;21.50;56.81;101706.19;4945484;28;21113;-66
2023/06/08 09:14:26;;;;;;;;;;;;;;;21.68;56.20;101713.50;4936885;28;19934;-67
2023/06/08 09:16:52;;;;;;;;;;;;;;;21.82;55.67;101708.81;4944392;28;20289;-68
2023/06/08 09:19:18;;;;;;;;;;;;;;;21.96;55.28;101713.84;4943027;28;20032;-68
2023/06/08 09:21:44;;;;;;;;;;;;;;;22.10;54.76;101713.72;4945995;28;20069;-67
2023/06/08 09:24:11;;;;;;;;;;;;;;;22.20;54.28;101711.31;4943054;28;20583;-68
2023/06/08 09:26:37;;;;;;;;;;;;;;;22.16;54.06;101712.81;4946922;28;20797;-68
2023/06/08 09:29:03;;;;;;;;;;;;;;;22.07;53.59;101706.91;4936911;28;20036;-67
2023/06/08 09:31:29;;;;;;;;;;;;;;;22.02;53.52;101700.47;4938389;28;19952;-67
2023/06/08 09:34:08;;;;;;;;;;;;;;;22.01;54.09;101705.06;4948484;28;19974;-68
2023/06/08 09:36:36;;;;;;;;;;;;;;;22.13;53.82;101702.47;4945070;28;20300;-67
2023/06/08 09:39:03;;;;;;;;;;;;;;;22.30;53.77;101699.97;4940924;28;19958;-68
2023/06/08 09:41:29;;;;;;;;;;;;;;;22.51;53.46;101696.75;4949353;28;20290;-68
2023/06/08 09:43:54;;;;;;;;;;;;;;;22.71;52.91;101699.22;4944883;28;19946;-68
2023/06/08 09:46:32;;;;;;;;;;;;;;;22.85;52.44;101696.13;4945105;28;19927;-67
2023/06/08 09:48:57;;;;;;;;;;;;;;;23.04;51.67;101693.31;4942480;28;20014;-67
2023/06/08 09:51:23;;;;;;;;;;;;;;;23.16;51.85;101686.88;4949909;28;20025;-68
2023/06/08 09:53:53;;;;;;;;;;;;;;;23.25;51.64;101691.97;4943826;28;19949;-67
2023/06/08 09:56:22;;;;;;;;;;;;;;;23.39;51.46;101696.09;4946492;28;20422;-68
2023/06/08 09:58:50;;;;;;;;;;;;;;;23.48;50.88;101691.97;4939863;28;19949;-68
2023/06/08 10:01:16;;;;;;;;;;;;;;;23.46;50.80;101685.97;4940380;28;19933;-68
2023/06/08 10:03:47;;;;;;;;;;;;;;;23.40;50.49;101690.41;4947459;28;20470;-67
2023/06/08 10:06:12;;;;;;;;;;;;;;;23.43;50.74;101689.97;4947190;28;19949;-69
2023/06/08 10:08:38;;;;;;;;;;;;;;;23.52;50.36;101693.16;4944375;28;19919;-68
2023/06/08 10:11:04;;;;;;;;;;;;;;;23.63;49.94;101691.53;4941115;28;20435;-68
2023/06/08 10:13:29;;;;;;;;;;;;;;;23.66;49.52;101686.44;4942325;28;20458;-68
2023/06/08 10:15:55;;;;;;;;;;;;;;;23.69;49.29;101682.44;4942785;28;19922;-68
2023/06/08 10:18:21;;;;;;;;;;;;;;;23.66;48.89;101691.06;4944965;28;19983;-68
2023/06/08 10:20:46;;;;;;;;;;;;;;;23.63;48.52;101686.94;4939468;28;19919;-68
2023/06/08 10:23:12;;;;;;;;;;;;;;;23.57;48.69;101690.59;4948979;28;20404;-69
2023/06/08 10:25:38;;;;;;;;;;;;;;;23.49;48.36;101685.50;4944039;28;19965;-68
2023/06/08 10:28:09;;;;;;;;;;;;;;;23.40;48.71;101693.13;4940773;28;19927;-68
2023/06/08 10:30:41;;;;;;;;;;;;;;;23.36;48.51;101678.41;4935084;28;19992;-68
2023/06/08 10:33:08;;;;;;;;;;;;;;;23.35;48.57;101678.63;4937254;28;19923;-67
2023/06/08 10:35:33;;;;;;;;;;;;;;;23.44;49.21;101686.22;4938857;28;20460;-70
2023/06/08 10:38:07;;;;;;;;;;;;;;;23.53;49.85;101683.13;4946066;28;20013;-70
2023/06/08 10:40:40;;;;;;;;;;;;;;;23.60;49.84;101678.44;4928995;28;19933;-67
2023/06/08 10:43:07;;;;;;;;;;;;;;;23.57;49.17;101684.34;4939849;28;19950;-68
2023/06/08 10:45:35;;;;;;;;;;;;;;;23.47;48.60;101682.19;4941348;28;19929;-68
2023/06/08 10:48:01;;;;;;;;;;;;;;;23.38;48.30;101678.16;4946085;28;20368;-67
2023/06/08 10:50:30;;;;;;;;;;;;;;;23.29;48.10;101668.75;4939571;28;20013;-67
2023/06/08 10:52:58;;;;;;;;;;;;;;;23.25;48.48;101665.69;4935867;28;19918;-68
2023/06/08 10:55:25;;;;;;;;;;;;;;;23.27;47.98;101660.03;4934790;28;19914;-68
2023/06/08 10:57:52;;;;;;;;;;;;;;;23.32;48.14;101660.13;4937096;28;19981;-67
2023/06/08 11:00:20;;;;;;;;;;;;;;;23.46;48.43;101650.72;4935824;28;19953;-68
2023/06/08 11:02:46;;;;;;;;;;;;;;;23.63;48.17;101653.56;4933019;28;19915;-68
2023/06/08 11:05:12;;;;;;;;;;;;;;;23.78;48.45;101652.03;4934510;28;19957;-68
2023/06/08 11:07:37;;;;;;;;;;;;;;;23.98;47.79;101653.50;4943767;28;20423;-68
2023/06/08 11:10:03;;;;;;;;;;;;;;;24.15;47.71;101646.25;4948302;28;20009;-68
2023/06/08 11:12:28;;;;;;;;;;;;;;;24.35;47.45;101643.16;4932993;28;19950;-68
2023/06/08 11:14:53;;;;;;;;;;;;;;;24.52;47.16;101635.03;4937545;28;19923;-68
2023/06/08 11:17:18;;;;;;;;;;;;;;;24.66;46.50;101641.81;4943988;28;19922;-68
2023/06/08 11:19:44;;;;;;;;;;;;;;;24.82;46.23;101648.34;4941450;28;19919;-68
2023/06/08 11:22:09;;;;;;;;;;;;;;;24.92;46.24;101635.75;4947550;28;19918;-68
2023/06/08 11:24:34;;;;;;;;;;;;;;;24.99;45.40;101639.16;4933217;28;19946;-68
2023/06/08 11:27:00;;;;;;;;;;;;;;;25.00;44.97;101640.00;4942922;28;19922;-68
2023/06/08 11:29:28;;;;;;;;;;;;;;;25.02;45.14;101641.38;4947622;28;19914;-68
2023/06/08 11:31:54;;;;;;;;;;;;;;;25.07;44.87;101635.19;4940236;28;19914;-68
2023/06/08 11:34:19;;;;;;;;;;;;;;;25.06;45.18;101630.00;4937556;28;19978;-68
2023/06/08 11:36:45;;;;;;;;;;;;;;;25.09;45.77;101633.06;4943530;28;20277;-68
2023/06/08 11:39:11;;;;;;;;;;;;;;;25.17;45.81;101620.97;4934323;28;20067;-68
2023/06/08 11:41:36;;;;;;;;;;;;;;;25.30;45.54;101617.88;4944930;28;19918;-68
2023/06/08 11:44:01;;;;;;;;;;;;;;;25.40;45.24;101612.59;4946531;28;20334;-68
2023/06/08 11:46:28;;;;;;;;;;;;;;;25.47;44.67;101610.53;4940124;28;20319;-69
2023/06/08 11:49:02;;;;;;;;;;;;;;;25.55;44.76;101606.56;4939459;28;20032;-68
2023/06/08 11:51:27;;;;;;;;;;;;;;;25.61;44.99;101606.34;4938774;28;19927;-69
2023/06/08 11:53:53;;;;;;;;;;;;;;;25.66;44.98;101602.06;4942343;28;19918;-69
2023/06/08 11:56:18;;;;;;;;;;;;;;;25.71;44.76;101591.25;4935008;28;20273;-69
2023/06/08 11:58:45;;;;;;;;;;;;;;;25.76;45.28;101597.63;4946053;28;20504;-69
2023/06/08 12:01:13;;;;;;;;;;;;;;;25.87;44.77;101598.56;4945724;28;19918;-68
2023/06/08 12:03:42;;;;;;;;;;;;;;;25.97;44.60;101589.69;4939994;28;20381;-69
2023/06/08 12:06:07;;;;;;;;;;;;;;;26.05;43.76;101579.19;4943869;28;20363;-67
2023/06/08 12:08:33;;;;;;;;;;;;;;;26.17;44.17;101581.75;4940827;28;20001;-69
2023/06/08 12:11:06;;;;;;;;;;;;;;;26.28;43.99;101574.47;4936849;28;19919;-69
2023/06/08 12:13:31;;;;;;;;;;;;;;;26.41;43.65;101577.66;4944025;28;20158;-68
2023/06/08 12:15:56;;;;;;;;;;;;;;;26.48;43.09;101564.66;4945625;28;20600;-69
2023/06/08 12:18:22;;;;;;;;;;;;;;;26.56;43.07;101568.78;4939502;28;19934;-69
2023/06/08 12:20:51;;;;;;;;;;;;;;;26.64;43.04;101565.59;4935588;28;20365;-68
2023/06/08 12:23:16;;;;;;;;;;;;;;;26.66;43.02;101562.63;4933183;28;19914;-69
2023/06/08 12:25:41;;;;;;;;;;;;;;;26.71;42.62;101552.59;4936636;28;19933;-69
2023/06/08 12:28:15;;;;;;;;;;;;;;;26.82;42.18;101559.75;4930342;28;20380;-68
2023/06/08 12:30:41;;;;;;;;;;;;;;;26.93;42.54;101562.56;4937694;28;19918;-69